createdAt,value
2018-08-22T00:02:33.425Z,2.37
2018-08-22T00:05:08.056Z,2.07
2018-08-22T00:07:42.742Z,1.93
2018-08-22T00:10:17.266Z,2.30
2018-08-22T00:12:51.748Z,2.00
2018-08-22T00:15:26.248Z,2.20
2018-08-22T00:18:00.852Z,2.10
2018-08-22T00:20:35.492Z,2.13
2018-08-22T00:23:10.120Z,2.00
2018-08-22T00:25:44.803Z,2.00
2018-08-22T00:28:19.517Z,2.07
2018-08-22T00:30:54.184Z,1.93
2018-08-22T00:33:28.778Z,1.87
2018-08-22T00:36:03.314Z,1.87
2018-08-22T00:38:37.940Z,2.20
2018-08-22T00:41:12.534Z,1.90
2018-08-22T00:43:47.244Z,2.10
2018-08-22T00:46:22.937Z,2.07
2018-08-22T00:49:09.917Z,1.90
2018-08-22T00:51:51.867Z,1.97
2018-08-22T00:54:26.343Z,2.03
2018-08-22T00:57:00.902Z,2.10
2018-08-22T00:59:35.784Z,2.47
2018-08-22T01:02:10.360Z,2.30
2018-08-22T01:04:45.092Z,2.20
2018-08-22T01:07:19.729Z,1.80
2018-08-22T01:09:54.188Z,2.27
2018-08-22T01:12:28.815Z,2.10
2018-08-22T01:15:03.621Z,2.10
2018-08-22T01:17:38.058Z,2.20
2018-08-22T01:20:18.785Z,2.30
2018-08-22T01:22:53.423Z,2.20
2018-08-22T01:25:28.090Z,2.17
2018-08-22T01:28:02.760Z,2.10
2018-08-22T01:30:37.260Z,1.80
2018-08-22T01:33:11.845Z,2.43
2018-08-22T01:35:46.884Z,1.90
2018-08-22T01:38:21.489Z,2.27
2018-08-22T01:40:56.049Z,2.00
2018-08-22T01:43:30.571Z,2.20
2018-08-22T01:46:05.384Z,2.17
2018-08-22T01:48:39.849Z,2.00
2018-08-22T01:51:14.329Z,2.23
2018-08-22T01:53:48.736Z,2.13
2018-08-22T01:56:23.344Z,2.50
2018-08-22T01:58:57.940Z,2.20
2018-08-22T02:01:32.527Z,2.10
2018-08-22T02:04:07.277Z,2.20
2018-08-22T02:06:41.892Z,2.20
2018-08-22T02:09:16.577Z,2.23
2018-08-22T02:11:51.089Z,2.13
2018-08-22T02:14:25.618Z,1.87
2018-08-22T02:17:00.448Z,2.50
2018-08-22T02:19:35.079Z,2.43
2018-08-22T02:22:09.724Z,2.57
2018-08-22T02:24:44.276Z,2.23
2018-08-22T02:27:18.882Z,2.40
2018-08-22T02:29:53.488Z,2.43
2018-08-22T02:32:28.155Z,2.27
2018-08-22T02:35:02.784Z,2.40
2018-08-22T02:37:37.411Z,2.40
2018-08-22T02:40:11.975Z,2.20
2018-08-22T02:42:46.477Z,2.30
2018-08-22T02:45:21.125Z,2.30
2018-08-22T02:47:55.672Z,2.30
2018-08-22T02:50:30.093Z,2.70
2018-08-22T02:53:04.648Z,2.17
2018-08-22T02:55:39.234Z,2.40
2018-08-22T02:58:13.772Z,2.40
2018-08-22T03:00:48.421Z,2.87
2018-08-22T03:03:23.049Z,2.30
2018-08-22T03:05:57.553Z,3.00
2018-08-22T03:08:32.137Z,2.67
2018-08-22T03:11:06.705Z,2.10
2018-08-22T03:13:41.344Z,2.20
2018-08-22T03:16:15.964Z,2.53
2018-08-22T03:18:50.676Z,3.10
2018-08-22T03:21:25.329Z,2.60
2018-08-22T03:23:59.841Z,2.93
2018-08-22T03:26:34.468Z,2.60
2018-08-22T03:29:09.017Z,2.67
2018-08-22T03:31:43.665Z,2.43
2018-08-22T03:37:16.925Z,2.70
2018-08-22T03:39:51.458Z,2.67
2018-08-22T03:42:26.101Z,2.70
2018-08-22T03:45:00.840Z,2.70
2018-08-22T03:47:35.479Z,3.40
2018-08-22T03:50:10.199Z,2.90
2018-08-22T03:52:44.824Z,3.20
2018-08-22T03:55:19.389Z,2.80
2018-08-22T03:57:53.965Z,2.63
2018-08-22T04:00:28.557Z,3.00
2018-08-22T04:03:03.070Z,3.20
2018-08-22T04:05:37.664Z,3.17
2018-08-22T04:08:12.370Z,3.27
2018-08-22T04:10:46.816Z,3.20
2018-08-22T04:13:32.828Z,3.50
2018-08-22T04:16:07.394Z,3.37
2018-08-22T04:18:41.882Z,3.10
2018-08-22T04:21:16.468Z,3.07
2018-08-22T04:23:51.061Z,3.03
2018-08-22T04:26:25.844Z,3.60
2018-08-22T04:29:00.274Z,3.20
2018-08-22T04:31:35.185Z,3.20
2018-08-22T04:34:09.849Z,3.50
2018-08-22T04:36:44.945Z,3.70
2018-08-22T04:39:19.440Z,3.63
2018-08-22T04:41:54.025Z,3.63
2018-08-22T04:44:28.695Z,3.50
2018-08-22T04:47:03.405Z,3.57
2018-08-22T04:49:38.057Z,3.63
2018-08-22T04:52:13.069Z,3.97
2018-08-22T04:54:47.797Z,3.40
2018-08-22T04:57:22.320Z,3.37
2018-08-22T04:59:56.888Z,3.10
2018-08-22T05:02:31.572Z,3.70
2018-08-22T05:05:06.185Z,3.27
2018-08-22T05:07:40.737Z,3.50
2018-08-22T05:10:15.401Z,3.10
2018-08-22T05:12:50.039Z,3.33
2018-08-22T05:15:24.532Z,3.37
2018-08-22T05:17:59.193Z,3.17
2018-08-22T05:20:33.918Z,3.10
2018-08-22T05:23:08.609Z,3.53
2018-08-22T05:25:43.169Z,3.27
2018-08-22T05:28:17.784Z,3.10
2018-08-22T05:30:52.264Z,3.43
2018-08-22T05:33:26.837Z,3.53
2018-08-22T05:36:02.419Z,3.27
2018-08-22T05:38:36.991Z,3.70
2018-08-22T05:41:11.537Z,3.33
2018-08-22T05:43:46.165Z,3.80
2018-08-22T05:46:21.187Z,3.50
2018-08-22T05:48:55.712Z,3.30
2018-08-22T05:51:30.330Z,3.60
2018-08-22T05:54:04.942Z,3.07
2018-08-22T05:56:39.400Z,3.23
2018-08-22T05:59:14.196Z,3.77
2018-08-22T06:01:48.766Z,3.20
2018-08-22T06:04:23.401Z,3.43
2018-08-22T06:06:57.992Z,3.33
2018-08-22T06:09:32.474Z,3.10
2018-08-22T06:12:07.319Z,3.70
2018-08-22T06:14:41.990Z,3.40
2018-08-22T06:17:16.613Z,3.40
2018-08-22T06:19:51.421Z,3.27
2018-08-22T06:22:25.934Z,3.00
2018-08-22T06:25:00.578Z,2.90
2018-08-22T06:27:35.656Z,3.07
2018-08-22T06:30:11.177Z,2.93
2018-08-22T06:32:45.674Z,3.13
2018-08-22T06:35:20.289Z,3.33
2018-08-22T06:37:54.824Z,3.03
2018-08-22T06:40:29.397Z,3.20
2018-08-22T06:43:04.152Z,3.53
2018-08-22T06:45:38.609Z,2.90
2018-08-22T06:48:13.176Z,3.17
2018-08-22T06:50:47.813Z,3.27
2018-08-22T06:53:22.521Z,3.00
2018-08-22T06:55:57.033Z,3.43
2018-08-22T06:58:31.481Z,3.40
2018-08-22T07:01:06.064Z,3.03
2018-08-22T07:03:40.602Z,3.03
2018-08-22T07:06:15.173Z,3.50
2018-08-22T07:08:49.613Z,3.30
2018-08-22T07:11:24.270Z,2.90
2018-08-22T07:13:58.929Z,3.50
2018-08-22T07:16:33.500Z,3.30
2018-08-22T07:19:08.126Z,2.90
2018-08-22T07:21:42.679Z,2.87
2018-08-22T07:24:17.272Z,2.70
2018-08-22T07:26:51.991Z,3.37
2018-08-22T07:29:26.705Z,3.00
2018-08-22T07:32:01.264Z,3.40
2018-08-22T07:34:41.453Z,2.93
2018-08-22T07:37:16.325Z,2.87
2018-08-22T07:39:50.917Z,3.53
2018-08-22T07:42:25.529Z,2.83
2018-08-22T07:45:00.178Z,3.47
2018-08-22T07:47:34.737Z,3.03
2018-08-22T07:50:09.330Z,3.40
2018-08-22T07:52:50.640Z,3.47
2018-08-22T07:55:25.312Z,3.10
2018-08-22T07:58:00.037Z,3.10
2018-08-22T08:06:56.550Z,3.30
2018-08-22T08:09:31.096Z,3.20
2018-08-22T08:12:05.796Z,3.23
2018-08-22T08:14:40.449Z,3.33
2018-08-22T08:17:15.233Z,3.53
2018-08-22T08:19:49.741Z,3.43
2018-08-22T08:22:24.362Z,3.80
2018-08-22T08:24:58.932Z,3.77
2018-08-22T08:27:33.553Z,3.07
2018-08-22T08:30:08.108Z,3.67
2018-08-22T08:32:42.753Z,3.80
2018-08-22T08:35:17.474Z,3.60
2018-08-22T08:37:52.328Z,3.37
2018-08-22T08:40:26.725Z,3.40
2018-08-22T08:43:02.320Z,3.37
2018-08-22T08:45:38.954Z,3.60
2018-08-22T08:48:13.533Z,3.57
2018-08-22T08:50:48.306Z,3.97
2018-08-22T08:53:27.146Z,3.67
2018-08-22T08:56:03.447Z,3.60
2018-08-22T08:58:38.194Z,3.67
2018-08-22T09:01:12.704Z,3.40
2018-08-22T09:03:47.458Z,3.40
2018-08-22T09:06:22.032Z,3.23
2018-08-22T09:08:56.692Z,3.70
2018-08-22T09:11:31.380Z,3.40
2018-08-22T09:14:07.184Z,3.73
2018-08-22T09:16:41.752Z,4.30
2018-08-22T09:19:16.281Z,3.37
2018-08-22T09:21:50.840Z,3.83
2018-08-22T09:24:25.381Z,3.47
2018-08-22T09:26:59.845Z,3.90
2018-08-22T09:29:34.457Z,3.30
2018-08-22T09:32:09.168Z,3.53
2018-08-22T09:34:43.852Z,3.20
2018-08-22T09:37:18.705Z,3.27
2018-08-22T09:39:53.168Z,3.23
2018-08-22T09:42:27.648Z,3.60
2018-08-22T09:45:02.360Z,3.50
2018-08-22T09:47:37.116Z,3.33
2018-08-22T09:50:11.678Z,3.77
2018-08-22T09:52:46.301Z,4.60
2018-08-22T09:55:20.888Z,3.70
2018-08-22T09:57:55.487Z,3.70
2018-08-22T10:00:35.459Z,4.10
2018-08-22T10:03:09.918Z,3.63
2018-08-22T10:05:44.659Z,3.63
2018-08-22T10:08:19.161Z,4.00
2018-08-22T10:10:53.837Z,3.87
2018-08-22T10:13:28.392Z,4.00
2018-08-22T10:16:03.669Z,3.67
2018-08-22T10:18:38.325Z,3.90
2018-08-22T10:21:12.958Z,3.73
2018-08-22T10:23:47.633Z,3.70
2018-08-22T10:26:22.493Z,3.60
2018-08-22T10:28:57.130Z,3.93
2018-08-22T10:31:31.845Z,3.93
2018-08-22T10:34:10.377Z,3.87
2018-08-22T10:36:45.880Z,4.10
2018-08-22T10:39:20.451Z,4.20
2018-08-22T10:41:54.980Z,3.93
2018-08-22T10:44:29.735Z,4.20
2018-08-22T10:47:04.254Z,4.10
2018-08-22T10:49:38.748Z,4.13
2018-08-22T10:52:13.378Z,3.60
2018-08-22T10:54:47.869Z,3.80
2018-08-22T10:57:22.380Z,4.47
2018-08-22T11:00:04.877Z,4.03
2018-08-22T11:02:44.164Z,4.50
2018-08-22T11:05:31.057Z,4.63
2018-08-22T11:08:06.798Z,4.97
2018-08-22T11:10:41.677Z,4.90
2018-08-22T11:13:16.260Z,4.50
2018-08-22T11:15:51.036Z,6.00
2018-08-22T11:18:25.613Z,5.27
2018-08-22T11:21:11.786Z,5.03
2018-08-22T11:23:57.693Z,4.87
2018-08-22T11:26:43.504Z,4.97
2018-08-22T11:29:29.472Z,4.83
2018-08-22T11:32:15.316Z,4.77
2018-08-22T11:34:50.921Z,5.67
2018-08-22T11:37:25.621Z,5.53
2018-08-22T11:40:00.249Z,5.97
2018-08-22T11:42:34.769Z,5.00
2018-08-22T11:45:09.353Z,4.50
2018-08-22T11:47:44.065Z,4.33
2018-08-22T11:50:18.757Z,4.43
2018-08-22T11:52:53.450Z,4.80
2018-08-22T11:55:28.118Z,4.53
2018-08-22T11:58:03.025Z,5.20
2018-08-22T12:00:37.729Z,5.60
2018-08-22T12:03:12.252Z,6.30
2018-08-22T12:05:46.809Z,6.20
2018-08-22T12:08:21.332Z,5.60
2018-08-22T12:10:55.695Z,5.90
2018-08-22T12:13:30.122Z,5.90
2018-08-22T12:16:04.991Z,5.80
2018-08-22T12:18:39.793Z,5.97
2018-08-22T12:21:14.348Z,5.83
2018-08-22T12:23:48.892Z,6.37
2018-08-22T12:26:23.541Z,6.23
2018-08-22T12:28:58.071Z,6.00
2018-08-22T12:31:32.745Z,7.10
2018-08-22T12:34:07.905Z,7.60
2018-08-22T12:39:45.112Z,6.67
2018-08-22T12:42:19.699Z,7.23
2018-08-22T12:44:54.734Z,8.53
2018-08-22T12:47:29.253Z,8.80
2018-08-22T12:50:03.910Z,6.93
2018-08-22T12:52:38.408Z,7.10
2018-08-22T12:55:13.234Z,7.10
2018-08-22T12:57:47.705Z,7.13
2018-08-22T13:00:22.353Z,8.27
2018-08-22T13:02:56.848Z,7.60
2018-08-22T13:05:31.394Z,7.40
2018-08-22T13:08:06.268Z,6.70
2018-08-22T13:10:40.844Z,7.47
2018-08-22T13:13:15.576Z,7.73
2018-08-22T13:15:50.113Z,7.87
2018-08-22T13:18:24.723Z,7.50
2018-08-22T13:20:59.229Z,8.87
2018-08-22T13:23:34.049Z,9.03
2018-08-22T13:26:08.475Z,7.07
2018-08-22T13:28:43.040Z,7.60
2018-08-22T13:31:17.582Z,7.37
2018-08-22T13:33:52.058Z,9.07
2018-08-22T13:36:26.464Z,11.27
2018-08-22T13:39:01.202Z,9.37
2018-08-22T13:41:48.220Z,10.03
2018-08-22T13:44:23.384Z,11.73
2018-08-22T13:46:57.992Z,8.27
2018-08-22T13:49:32.597Z,8.27
2018-08-22T13:52:07.245Z,7.37
2018-08-22T13:54:41.798Z,7.67
2018-08-22T13:57:16.334Z,7.53
2018-08-22T13:59:50.833Z,10.23
2018-08-22T14:02:25.765Z,7.37
2018-08-22T14:05:00.404Z,8.43
2018-08-22T14:07:35.041Z,10.07
2018-08-22T14:10:09.680Z,9.57
2018-08-22T14:12:44.184Z,9.53
2018-08-22T14:15:18.749Z,10.00
2018-08-22T14:17:53.364Z,7.93
2018-08-22T14:20:27.809Z,7.00
2018-08-22T14:23:02.487Z,6.77
2018-08-22T14:25:37.152Z,8.57
2018-08-22T14:28:12.744Z,8.27
2018-08-22T14:30:47.470Z,9.37
2018-08-22T14:33:22.133Z,7.80
2018-08-22T14:35:56.725Z,9.10
2018-08-22T14:38:31.199Z,8.53
2018-08-22T14:41:05.709Z,7.80
2018-08-22T14:43:40.718Z,7.70
2018-08-22T14:46:15.161Z,9.30
2018-08-22T14:48:49.685Z,7.63
2018-08-22T14:51:24.353Z,9.03
2018-08-22T14:53:58.923Z,8.20
2018-08-22T14:56:33.616Z,7.17
2018-08-22T14:59:08.173Z,8.67
2018-08-22T15:01:42.714Z,6.57
2018-08-22T15:04:17.413Z,9.07
2018-08-22T15:06:51.983Z,9.73
2018-08-22T15:09:26.865Z,9.33
2018-08-22T15:12:01.357Z,8.57
2018-08-22T15:14:36.009Z,5.40
2018-08-22T15:17:10.871Z,7.03
2018-08-22T15:19:45.580Z,6.87
2018-08-22T15:22:20.321Z,8.17
2018-08-22T15:24:54.921Z,7.20
2018-08-22T15:27:29.472Z,9.70
2018-08-22T15:30:04.300Z,9.47
2018-08-22T15:32:38.938Z,9.50
2018-08-22T15:35:13.555Z,8.70
2018-08-22T15:37:48.152Z,8.23
2018-08-22T15:40:22.745Z,6.60
2018-08-22T15:42:57.248Z,7.13
2018-08-22T15:45:31.713Z,6.67
2018-08-22T15:48:06.241Z,7.87
2018-08-22T15:50:40.769Z,6.43
2018-08-22T15:53:15.481Z,7.33
2018-08-22T15:55:50.017Z,6.13
2018-08-22T15:58:24.617Z,5.77
2018-08-22T16:00:59.026Z,6.33
2018-08-22T16:03:33.733Z,9.77
2018-08-22T16:06:08.369Z,9.27
2018-08-22T16:08:42.989Z,8.77
2018-08-22T16:11:17.554Z,7.97
2018-08-22T16:13:52.301Z,7.20
2018-08-22T16:16:26.911Z,9.33
2018-08-22T16:19:04.044Z,13.00
2018-08-22T16:21:38.590Z,12.03
2018-08-22T16:24:13.349Z,12.87
2018-08-22T16:26:48.005Z,12.13
2018-08-22T16:29:22.645Z,12.67
2018-08-22T16:31:57.182Z,12.40
2018-08-22T16:34:31.757Z,12.33
2018-08-22T16:37:06.548Z,14.13
2018-08-22T16:39:43.004Z,14.80
2018-08-22T16:42:21.427Z,15.97
2018-08-22T16:44:56.049Z,18.00
2018-08-22T16:47:34.721Z,14.27
2018-08-22T16:50:09.241Z,17.83
2018-08-22T16:52:43.737Z,16.17
2018-08-22T16:55:22.452Z,19.90
2018-08-22T16:57:57.152Z,17.23
2018-08-22T17:00:37.936Z,17.10
2018-08-22T17:03:12.680Z,17.37
2018-08-22T17:05:47.342Z,14.97
2018-08-22T17:08:22.030Z,15.27
2018-08-22T17:11:00.256Z,13.10
2018-08-22T17:13:45.604Z,13.67
2018-08-22T17:16:20.517Z,14.07
2018-08-22T17:18:58.417Z,13.73
2018-08-22T17:21:33.638Z,14.23
2018-08-22T17:24:08.434Z,12.23
2018-08-22T17:26:43.979Z,11.57
2018-08-22T17:29:18.644Z,12.93
2018-08-22T17:31:58.516Z,10.07
2018-08-22T17:34:33.387Z,11.43
2018-08-22T17:37:09.502Z,12.77
2018-08-22T17:39:44.846Z,12.10
2018-08-22T17:42:19.344Z,9.97
2018-08-22T17:44:53.813Z,12.03
2018-08-22T17:47:28.402Z,13.07
2018-08-22T17:50:07.324Z,12.00
2018-08-22T17:52:41.701Z,10.60
2018-08-22T17:55:17.069Z,11.37
2018-08-22T17:57:51.601Z,10.83
2018-08-22T18:00:28.569Z,11.50
2018-08-22T18:03:03.203Z,11.37
2018-08-22T18:05:37.778Z,11.10
2018-08-22T18:08:12.946Z,10.97
2018-08-22T18:10:47.685Z,10.13
2018-08-22T18:13:22.376Z,8.77
2018-08-22T18:15:56.890Z,9.40
2018-08-22T18:18:31.405Z,9.87
2018-08-22T18:21:05.840Z,9.17
2018-08-22T18:23:45.413Z,10.87
2018-08-22T18:26:20.051Z,11.07
2018-08-22T18:28:54.740Z,11.87
2018-08-22T18:31:29.265Z,10.10
2018-08-22T18:34:03.913Z,12.87
2018-08-22T18:36:38.417Z,10.10
2018-08-22T18:39:15.221Z,11.37
2018-08-22T18:41:49.717Z,11.67
2018-08-22T18:44:24.155Z,11.33
2018-08-22T18:46:58.688Z,12.07
2018-08-22T18:49:33.261Z,12.30
2018-08-22T18:52:07.769Z,11.70
2018-08-22T18:54:42.357Z,12.47
2018-08-22T18:57:17.097Z,11.10
2018-08-22T18:59:51.940Z,10.40
2018-08-22T19:02:27.593Z,9.87
2018-08-22T19:05:34.783Z,9.90
2018-08-22T19:08:11.028Z,9.77
2018-08-22T19:10:47.955Z,12.33
2018-08-22T19:13:23.898Z,13.07
2018-08-22T19:16:00.748Z,13.30
2018-08-22T19:18:35.569Z,11.20
2018-08-22T19:21:11.132Z,10.43
2018-08-22T19:23:46.849Z,14.30
2018-08-22T19:26:21.598Z,10.40
2018-08-22T19:28:58.002Z,13.65
2018-08-22T19:31:32.419Z,11.33
2018-08-22T19:34:06.961Z,13.83
2018-08-22T19:36:42.045Z,13.03
2018-08-22T19:39:17.453Z,13.87
2018-08-22T19:41:52.065Z,14.80
2018-08-22T19:44:26.677Z,15.30
2018-08-22T19:47:01.251Z,15.80
2018-08-22T19:49:35.864Z,15.40
2018-08-22T19:52:10.401Z,15.17
2018-08-22T19:54:44.973Z,16.17
2018-08-22T19:57:23.857Z,16.50
2018-08-22T19:59:58.339Z,17.07
2018-08-22T20:02:33.225Z,15.90
2018-08-22T20:05:09.257Z,16.70
2018-08-22T20:07:43.765Z,16.97
2018-08-22T20:10:22.508Z,17.30
2018-08-22T20:12:57.528Z,18.50
2018-08-22T20:15:32.064Z,18.20
2018-08-22T20:18:06.608Z,19.10
2018-08-22T20:20:41.279Z,18.83
2018-08-22T20:23:16.106Z,18.90
2018-08-22T20:25:50.746Z,19.20
2018-08-22T20:28:25.421Z,18.90
2018-08-22T20:31:04.156Z,18.37
2018-08-22T20:33:39.585Z,19.40
2018-08-22T20:36:14.189Z,18.80
2018-08-22T20:38:48.777Z,19.73
2018-08-22T20:41:23.442Z,18.97
2018-08-22T20:43:58.118Z,20.33
2018-08-22T20:46:32.688Z,21.23
2018-08-22T20:49:07.341Z,22.17
2018-08-22T20:51:41.991Z,22.63
2018-08-22T20:54:23.981Z,22.93
2018-08-22T20:57:00.180Z,23.67
2018-08-22T20:59:34.745Z,22.43
2018-08-22T21:02:09.347Z,21.77
2018-08-22T21:04:43.870Z,21.80
2018-08-22T21:07:30.746Z,22.83
2018-08-22T21:10:05.322Z,22.53
2018-08-22T21:12:40.007Z,23.93
2018-08-22T21:15:14.612Z,23.40
2018-08-22T21:17:49.269Z,22.13
2018-08-22T21:20:24.881Z,23.60
2018-08-22T21:23:09.153Z,24.67
2018-08-22T21:31:44.663Z,24.97
2018-08-22T21:34:21.526Z,24.57
2018-08-22T21:36:56.130Z,24.90
2018-08-22T21:39:30.661Z,24.07
2018-08-22T21:42:05.161Z,24.30
2018-08-22T21:44:39.725Z,24.00
2018-08-22T21:47:14.384Z,25.10
2018-08-22T21:49:49.097Z,25.13
2018-08-22T21:52:23.708Z,24.67
2018-08-22T21:54:58.188Z,24.63
2018-08-22T21:57:32.718Z,25.00
2018-08-22T22:00:10.493Z,23.93
2018-08-22T22:02:45.336Z,25.27
2018-08-22T22:05:24.029Z,25.90
2018-08-22T22:07:58.737Z,24.87
2018-08-22T22:10:33.257Z,25.83
2018-08-22T22:13:08.448Z,24.87
2018-08-22T22:15:45.325Z,24.57
2018-08-22T22:18:22.976Z,21.90
2018-08-22T22:21:15.173Z,25.30
2018-08-22T22:23:49.985Z,27.30
2018-08-22T22:26:24.589Z,26.17
2018-08-22T22:28:59.289Z,26.77
2018-08-22T22:31:33.983Z,25.93
2018-08-22T22:34:10.226Z,26.07
2018-08-22T22:36:44.947Z,26.37
2018-08-22T22:39:33.956Z,26.80
2018-08-22T22:42:14.897Z,22.63
2018-08-22T22:44:50.673Z,25.80
2018-08-22T22:47:28.473Z,26.27
2018-08-22T22:50:04.181Z,26.57
2018-08-22T22:52:43.097Z,26.20
2018-08-22T22:55:17.568Z,23.20
2018-08-22T22:57:52.283Z,26.27
2018-08-22T23:00:29.268Z,26.83
2018-08-22T23:03:07.412Z,26.07
2018-08-22T23:05:41.937Z,26.00
2018-08-22T23:08:16.506Z,27.63
2018-08-22T23:10:51.059Z,25.90
2018-08-22T23:13:27.219Z,24.30
2018-08-22T23:16:08.201Z,23.50
2018-08-22T23:18:42.944Z,23.40
2018-08-22T23:21:17.636Z,26.37
2018-08-22T23:23:52.265Z,25.90
2018-08-22T23:26:27.017Z,24.27
2018-08-22T23:29:01.813Z,27.07
2018-08-22T23:31:36.490Z,28.63
2018-08-22T23:34:11.194Z,29.33
2018-08-22T23:36:45.817Z,27.53
2018-08-22T23:39:22.688Z,29.50
2018-08-22T23:41:57.437Z,27.80
2018-08-22T23:44:32.065Z,27.63
2018-08-22T23:47:06.653Z,27.80
2018-08-22T23:49:45.284Z,24.63
2018-08-22T23:52:19.744Z,26.53
2018-08-22T23:54:54.356Z,27.37
2018-08-22T23:57:28.920Z,28.33
